Terminal Aerodrome Forecast
Issued by NWS

Home | Current Version | Previous Version | Text Only | Print | Product List | Glossary On
Versions: 1 2 3 4 5 6 7 8 9 10 11 12 13 14 15 16 17 18 19 20 21 22 23 24 25 26
000
FTUS43 KDLH 030500
TAFBRD
TAF
KBRD 030527Z 0306/0406 18014G20KT P6SM OVC080
     FM030800 19012G20KT 4SM -SN SCT025 OVC050
      TEMPO 0308/0310 1SM -SN SCT008 OVC015
     FM031000 20010KT 1/2SM SN OVC008
     FM031600 25010KT 5SM -SN BLSN OVC025
     FM032000 32018G28KT 6SM BLSN OVC030=

USA.gov is the U.S. government's official web portal to all federal, state and local government web resources and services.